11°C
Woerden, The Nederlands
Taal:  Nederlands
Updated25/09/2018 21:40 
 

Nearby METAR Reports

EHAM - Amsterdam/Schiph, Netherlands
Distance from station: N 27km
Updated: 25/09/2018 21:25
Helder
Helder
 Wind van OZO
Wind: OZO 4 km/h
Temperatuur: 10°C
Dauwpunt: 7°C
Vochtigheid: 82%
Barometer: 1036 hPa
Overzicht: Helder
Visibility: greater than 10 km
2018/09/25 19:25 EHAM 251925Z 12002KT CAVOK 10/07 Q1036 NOSIG
EHRD - Rotterdam Airpor, Netherlands
Distance from station: WZW 30km
Updated: 25/09/2018 21:25
Gedeeltelijk bewolkt
Gedeeltelijk bewolkt
 Wind van ONO
Wind: ONO 4 km/h
Temperatuur: 8°C
Dauwpunt: 7°C
Vochtigheid: 93%
Barometer: 1037 hPa
Clouds: Gedeeltelijk bewolkt
Visibility: 10 km
2018/09/25 19:25 EHRD 251925Z AUTO 06002KT 9999 NSC 08/07 Q1037 NOSIG
 
EHGR - Gilze-Rijen Rnla, Netherlands
Distance from station: Z 57km
Updated: 25/09/2018 21:25
Helder
Helder
 Wind van ZO
Wind: ZO 7 km/h
Temperatuur: 8°C
Hitte Index: 7°C
Dauwpunt: 6°C
Vochtigheid: 87%
Barometer: 1037 hPa
Clouds: Helder
Visibility: 10 km
2018/09/25 19:25 EHGR 251925Z AUTO 14004KT 9999 NCD 08/06 Q1037 BLU
EHDL - Deelen Rnlafb, Netherlands
Distance from station: O 71km
Updated: 25/09/2018 21:25
Zwaar bewolkt
Zwaar bewolkt
 Wind van OZO
Wind: OZO 4 km/h
Temperatuur: 7°C
Dauwpunt: 5°C
Vochtigheid: 87%
Barometer: 1037 hPa
Clouds: Zwaar bewolkt
Visibility: 10 km
Cloud details: Zwaar bewolkt 11887 m
2018/09/25 19:25 EHDL 251925Z AUTO 11002KT 9999 OVC390 07/05 Q1037 BLU
 
EHVK - Volkel Rnlafb, Netherlands
Distance from station: ZO 77km
Updated: 25/09/2018 21:25
Gedeeltelijk bewolkt
Gedeeltelijk bewolkt
 Wind van ZZO
Wind: ZZO 6 km/h
Temperatuur: 7°C
Dauwpunt: 6°C
Vochtigheid: 93%
Barometer: 1037 hPa
Clouds: Gedeeltelijk bewolkt
Visibility: 10 km
Cloud details: Gedeeltelijk bewolkt 12192 m
2018/09/25 19:25 EHVK 251925Z AUTO 16003KT 9999 SCT400 07/06 Q1037 BLU
EHWO - Woensdrecht Rnla, Netherlands
Distance from station: ZZW 78km
Updated: 25/09/2018 21:25
Zwaar bewolkt
Zwaar bewolkt
 Wind van OZO
Wind: OZO 4 km/h
Temperatuur: 6°C
Dauwpunt: 5°C
Vochtigheid: 93%
Barometer: 1037 hPa
Clouds: Zwaar bewolkt
Visibility: 10 km
Cloud details: Zwaar bewolkt 11582 m
2018/09/25 19:25 EHWO 251925Z AUTO 11002KT 9999 OVC380 06/05 Q1037 BLU
 
EHEH - Eindhoven Rnlafb, Netherlands
Distance from station: ZZO 81km
Updated: 25/09/2018 21:25
Few Clouds
Few Clouds
 Wind van varies
Wind: varies 4 km/h
Temperatuur: 7°C
Dauwpunt: 6°C
Vochtigheid: 93%
Barometer: 1037 hPa
Clouds: Few Clouds
Visibility: 10 km
Cloud details: Few Clouds 12192 m
2018/09/25 19:25 EHEH 251925Z AUTO VRB02KT 9999 FEW400 07/06 Q1037 BLU VRB03KT CAVOK
EHSC - Goeree Le Sea, Netherlands
Distance from station: W 81km
Updated: 25/09/2018 21:25

 Wind van Z
Wind: Z 9 km/h
Temperatuur: 15°C
Dauwpunt: 6°C
Vochtigheid: 55%
Barometer: 1036 hPa
Visibility: 10 km
2018/09/25 19:25 EHSC 251925Z AUTO 17005KT 9999 ///////// 15/06 Q1036 W18/H7